Time;durP1;ratioP1;P1;durP2;ratioP2;P2;SDS_P1;SDS_P2;PMS_P1;PMS_P2;Temp;Humidity;BMP_temperature;BMP_pressure;BME280_temperature;BME280_humidity;BME280_pressure;Samples;Min_cycle;Max_cycle;Signal;HPM_P1;HPM_P2
2022/02/15 00:03:08;;;;;;;;;;;;;;;;;;;;;
2022/02/15 00:06:08;;;;;;;5.43;2.30;;;9.00;99.90;;;;;;5083375;28;20503;-87
2022/02/15 00:08:52;;;;;;;6.20;2.27;;;9.30;99.90;;;;;;5083587;28;21015;-89
2022/02/15 00:11:43;;;;;;;4.90;2.27;;;9.20;99.90;;;;;;5079590;28;21083;-88
2022/02/15 00:17:44;;;;;;;5.00;1.97;;;9.20;99.90;;;;;;5085605;28;20472;-88
2022/02/15 00:20:24;;;;;;;4.77;2.30;;;9.50;99.90;;;;;;5065907;28;20995;-86
2022/02/15 00:23:10;;;;;;;3.93;2.20;;;9.40;99.90;;;;;;5081414;28;20475;-88
2022/02/15 00:26:16;;;;;;;5.13;2.97;;;9.30;99.90;;;;;;5077670;28;20464;-86
2022/02/15 00:29:36;;;;;;;8.80;3.30;;;9.20;99.90;;;;;;5070368;28;20490;-88
2022/02/15 00:35:29;;;;;;;6.50;2.77;;;9.50;99.90;;;;;;5089648;28;20454;-87
2022/02/15 00:38:27;;;;;;;5.00;2.20;;;9.40;99.90;;;;;;5081804;28;20538;-89
2022/02/15 00:41:12;;;;;;;4.73;2.80;;;9.40;99.90;;;;;;5079344;28;20463;-89
2022/02/15 00:43:56;;;;;;;7.47;2.40;;;9.60;99.90;;;;;;5081608;28;20474;-89
2022/02/15 00:46:46;;;;;;;5.40;2.17;;;9.80;99.90;;;;;;5082085;28;20465;-88
2022/02/15 00:49:34;;;;;;;3.53;1.77;;;9.80;99.90;;;;;;5076794;28;20471;-88
2022/02/15 00:52:26;;;;;;;3.43;2.07;;;9.60;99.90;;;;;;5079862;28;20474;-87
2022/02/15 00:55:30;;;;;;;4.43;1.70;;;9.60;99.90;;;;;;5076333;28;20455;-86
2022/02/15 00:58:32;;;;;;;3.90;2.00;;;9.60;99.90;;;;;;5084032;28;20513;-89
2022/02/15 01:01:46;;;;;;;4.67;2.10;;;9.60;99.90;;;;;;5078435;28;20551;-90
2022/02/15 01:04:44;;;;;;;2.90;1.97;;;9.70;99.90;;;;;;5085868;28;20544;-88
2022/02/15 01:10:32;;;;;;;3.83;1.90;;;9.70;99.90;;;;;;5069878;28;20451;-88
2022/02/15 01:13:32;;;;;;;2.93;2.00;;;9.70;99.90;;;;;;5082074;28;20494;-87
2022/02/15 01:16:09;;;;;;;5.80;2.10;;;9.70;99.90;;;;;;5083759;28;20463;-87
2022/02/15 01:18:54;;;;;;;4.63;1.93;;;9.90;99.90;;;;;;5069645;28;20479;-87
2022/02/15 01:21:56;;;;;;;3.63;2.23;;;10.00;99.90;;;;;;5086672;28;20439;-90
2022/02/15 01:24:58;;;;;;;3.53;2.23;;;10.00;99.90;;;;;;5104367;28;20474;-90
2022/02/15 01:27:50;;;;;;;6.73;2.57;;;10.00;99.90;;;;;;5009963;28;20442;-91
2022/02/15 01:30:31;;;;;;;6.10;3.07;;;10.00;99.90;;;;;;5002180;28;20455;-87
2022/02/15 01:36:11;;;;;;;6.40;2.00;;;10.20;99.90;;;;;;5080699;28;20444;-88
2022/02/15 01:38:57;;;;;;;5.87;2.10;;;10.10;99.90;;;;;;5088002;28;20479;-90
2022/02/15 01:41:44;;;;;;;7.03;2.13;;;10.10;99.90;;;;;;5091175;28;20477;-88
2022/02/15 01:44:54;;;;;;;7.67;2.00;;;10.10;99.90;;;;;;5082475;28;20470;-88
2022/02/15 01:47:43;;;;;;;5.33;1.97;;;10.00;99.90;;;;;;5084294;28;20467;-90
2022/02/15 01:50:47;;;;;;;2.50;1.90;;;10.00;99.90;;;;;;5003845;28;20534;-89
2022/02/15 01:54:00;;;;;;;6.40;2.40;;;10.00;99.90;;;;;;5006260;28;20551;-87
2022/02/15 01:57:15;;;;;;;3.47;1.80;;;10.00;99.90;;;;;;5006191;28;20466;-86
2022/02/15 02:00:18;;;;;;;6.87;2.43;;;9.80;99.90;;;;;;4992132;28;20474;-88
2022/02/15 02:03:41;;;;;;;7.93;2.50;;;9.60;99.90;;;;;;5007543;28;20447;-87
2022/02/15 02:07:04;;;;;;;6.00;2.23;;;9.70;99.90;;;;;;5007112;28;20470;-87
2022/02/15 02:10:04;;;;;;;4.17;2.17;;;10.00;99.90;;;;;;4999391;28;20487;-86
2022/02/15 02:13:10;;;;;;;6.70;2.17;;;10.00;99.90;;;;;;5006383;28;20460;-86
2022/02/15 02:15:56;;;;;;;4.33;2.30;;;10.00;99.90;;;;;;5001937;28;20473;-87
2022/02/15 02:18:52;;;;;;;3.50;2.20;;;10.10;99.90;;;;;;5004835;28;20455;-88
2022/02/15 02:21:51;;;;;;;4.67;3.63;;;10.00;99.90;;;;;;4968932;28;20992;-88
2022/02/15 02:27:23;;;;;;;7.20;2.47;;;10.10;99.90;;;;;;1742074;22;20442;-83
2022/02/15 02:30:15;;;;;;;6.30;2.80;;;9.90;99.90;;;;;;5081588;28;20502;-90
2022/02/15 02:33:26;;;;;;;3.97;2.30;;;10.00;99.90;;;;;;5077106;28;20458;-87
2022/02/15 02:36:29;;;;;;;4.80;2.20;;;9.90;99.90;;;;;;5066562;28;20465;-89
2022/02/15 02:39:18;;;;;;;3.97;2.50;;;9.90;99.90;;;;;;5084366;28;20477;-87
2022/02/15 02:41:51;;;;;;;6.00;2.43;;;9.80;99.90;;;;;;5071231;28;20525;-87
2022/02/15 02:48:09;;;;;;;5.10;2.43;;;9.50;99.90;;;;;;5068489;28;20472;-89
2022/02/15 02:51:12;;;;;;;4.03;2.10;;;9.70;99.90;;;;;;5070083;28;20461;-87
2022/02/15 02:53:56;;;;;;;4.83;2.30;;;9.70;99.90;;;;;;5033914;28;20527;-89
2022/02/15 02:56:55;;;;;;;3.57;2.63;;;9.50;99.90;;;;;;4985874;28;20455;-88
2022/02/15 03:00:14;;;;;;;3.30;2.10;;;9.50;99.90;;;;;;5001182;28;20450;-88
2022/02/15 03:03:09;;;;;;;3.83;2.50;;;9.50;99.90;;;;;;4997090;28;20454;-89
2022/02/15 03:09:40;;;;;;;4.50;2.63;;;9.30;99.90;;;;;;5004422;28;20579;-87
2022/02/15 03:12:26;;;;;;;4.13;3.00;;;9.30;99.90;;;;;;4996796;28;20457;-89
2022/02/15 03:15:47;;;;;;;;;;;;;;;;;;;;;
2022/02/15 03:19:09;;;;;;;10.13;2.70;;;9.30;99.90;;;;;;5043601;28;20448;-91
2022/02/15 03:21:53;;;;;;;4.50;2.63;;;9.30;99.90;;;;;;4997371;28;20447;-88
2022/02/15 03:24:29;;;;;;;4.20;2.60;;;9.30;99.90;;;;;;5012430;28;20473;-90
2022/02/15 03:27:27;;;;;;;3.27;2.53;;;9.30;99.90;;;;;;5088202;28;20503;-90
2022/02/15 03:30:11;;;;;;;3.83;2.50;;;9.30;99.90;;;;;;5080265;28;20578;-85
2022/02/15 03:33:11;;;;;;;4.70;2.50;;;9.30;99.90;;;;;;5084243;28;20455;-87
2022/02/15 03:35:54;;;;;;;3.90;3.60;;;9.20;99.90;;;;;;5070740;28;20535;-87
2022/02/15 03:39:10;;;;;;;6.33;2.80;;;9.20;99.90;;;;;;5074760;28;20463;-86
2022/02/15 03:45:36;;;;;;;5.07;3.73;;;9.20;99.90;;;;;;5073265;23;20508;-87
2022/02/15 03:48:38;;;;;;;8.50;3.27;;;9.20;99.90;;;;;;5060407;28;20447;-90
2022/02/15 03:51:57;;;;;;;5.90;3.20;;;9.20;99.90;;;;;;5059072;28;20458;-88
2022/02/15 03:57:16;;;;;;;4.50;3.00;;;9.20;99.90;;;;;;5087367;23;20476;-86
2022/02/15 04:00:24;;;;;;;4.37;3.30;;;9.20;99.90;;;;;;4990217;28;20459;-87
2022/02/15 04:03:02;;;;;;;4.30;3.30;;;9.20;99.90;;;;;;5003023;28;20488;-88
2022/02/15 04:05:54;;;;;;;5.47;3.40;;;9.20;99.90;;;;;;5060556;28;20510;-87
2022/02/15 04:08:50;;;;;;;5.00;3.60;;;9.20;99.90;;;;;;5067649;28;20460;-87
2022/02/15 04:11:48;;;;;;;6.87;3.90;;;9.20;99.90;;;;;;5069631;28;20456;-86
2022/02/15 04:14:33;;;;;;;4.77;3.90;;;9.20;99.90;;;;;;5081809;28;20471;-87
2022/02/15 04:17:29;;;;;;;5.50;3.70;;;9.20;99.90;;;;;;5065124;28;20479;-86
2022/02/15 04:20:20;;;;;;;4.17;3.73;;;9.20;99.90;;;;;;5071366;28;20456;-88
2022/02/15 04:22:49;;;;;;;6.07;3.87;;;9.20;99.90;;;;;;5070971;28;20464;-85
2022/02/15 04:25:35;;;;;;;4.57;3.70;;;9.20;99.90;;;;;;5070471;28;20581;-88
2022/02/15 04:28:23;;;;;;;5.63;4.07;;;9.20;99.90;;;;;;5078092;28;20486;-86
2022/02/15 04:31:09;;;;;;;6.07;3.87;;;9.20;99.90;;;;;;5053712;28;20523;-86
2022/02/15 04:34:32;;;;;;;6.53;4.33;;;9.10;99.90;;;;;;5033579;28;20467;-86
2022/02/15 04:37:18;;;;;;;4.43;4.03;;;9.20;99.90;;;;;;5074170;28;20479;-89
2022/02/15 04:43:14;;;;;;;4.27;3.80;;;9.10;99.90;;;;;;5037963;28;20460;-87
2022/02/15 04:46:22;;;;;;;5.60;3.97;;;9.10;99.90;;;;;;5057553;28;20457;-87
2022/02/15 04:49:12;;;;;;;5.90;4.37;;;9.00;99.90;;;;;;5076539;28;20551;-86
2022/02/15 04:52:02;;;;;;;9.37;5.77;;;9.00;99.90;;;;;;5062289;28;20447;-87
2022/02/15 04:54:40;;;;;;;11.07;4.67;;;9.00;99.90;;;;;;5035452;28;20475;-88
2022/02/15 04:57:22;;;;;;;6.80;4.60;;;9.00;99.90;;;;;;5047590;28;20460;-88
2022/02/15 05:00:35;;;;;;;7.63;5.00;;;9.00;99.90;;;;;;5030765;28;20476;-88
2022/02/15 05:11:36;;;;;;;9.40;5.20;;;8.80;99.90;;;;;;4911307;29;20974;-89
2022/02/15 05:33:54;;;;;;;9.03;5.40;;;8.70;99.90;;;;;;4898595;29;20475;-88
2022/02/15 06:35:51;;;;;;;6.93;6.03;;;8.60;99.90;;;;;;6036325;23;20474;-88
2022/02/15 06:59:17;;;;;;;;;;;;;;;;;;;;;
2022/02/15 07:02:26;;;;;;;8.90;6.97;;;9.00;99.90;;;;;;6050473;23;20406;-83
2022/02/15 07:09:42;;;;;;;9.33;7.30;;;9.00;99.90;;;;;;6037307;23;20403;-83
2022/02/15 07:12:46;;;;;;;;;;;;;;;;;;;;;
2022/02/15 07:22:18;;;;;;;8.50;7.60;;;9.50;99.90;;;;;;6221393;23;20388;-84
2022/02/15 07:25:21;;;;;;;10.40;7.30;;;9.50;99.90;;;;;;6195346;23;20433;-83
2022/02/15 07:29:12;;;;;;;;;;;;;;;;;;;;;
2022/02/15 07:38:57;;;;;;;13.93;9.27;;;8.60;99.90;;;;;;6190705;23;20421;-85
2022/02/15 07:48:49;;;;;;;8.90;7.30;;;8.70;99.90;;;;;;6159130;23;20423;-83
2022/02/15 07:51:39;;;;;;;10.33;7.80;;;8.60;99.90;;;;;;6015745;23;20465;-84
2022/02/15 08:06:06;;;;;;;15.43;10.80;;;8.90;99.90;;;;;;6035095;23;20543;-84
2022/02/15 08:13:03;;;;;;;13.20;8.83;;;8.80;99.90;;;;;;6047336;23;20478;-84
2022/02/15 08:23:27;;;;;;;10.97;7.73;;;9.20;99.90;;;;;;5932568;24;20459;-83
2022/02/15 08:27:06;;;;;;;13.00;7.03;;;9.50;99.90;;;;;;5919108;24;20426;-83
2022/02/15 08:30:50;;;;;;;;;;;;;;;;;;;;;
2022/02/15 08:34:03;;;;;;;10.70;7.50;;;9.10;99.90;;;;;;5840884;24;20514;-84
2022/02/15 08:41:07;;;;;;;;;;;;;;;;;;;;;
2022/02/15 08:48:23;;;;;;;9.20;7.70;;;9.30;99.90;;;;;;5954320;23;20429;-82
2022/02/15 08:53:48;;;;;;;12.03;7.67;;;9.10;99.90;;;;;;6208000;23;20505;-90
2022/02/15 08:56:59;;;;;;;9.87;7.50;;;9.10;99.90;;;;;;6168895;23;20460;-88
2022/02/15 08:59:46;;;;;;;6.60;5.90;;;9.10;99.90;;;;;;6188140;23;20422;-87
2022/02/15 09:02:17;;;;;;;8.83;6.40;;;9.30;99.90;;;;;;6186785;23;20507;-87
2022/02/15 09:05:11;;;;;;;9.57;6.80;;;9.30;99.90;;;;;;6158250;23;20473;-90
2022/02/15 09:08:36;;;;;;;9.10;6.63;;;9.40;99.90;;;;;;6162381;23;20418;-87
2022/02/15 09:11:30;;;;;;;6.07;5.47;;;9.40;99.90;;;;;;6187201;23;20447;-86
2022/02/15 09:14:43;;;;;;;10.00;5.70;;;9.60;99.90;;;;;;6163175;23;20446;-90
2022/02/15 09:17:53;;;;;;;6.47;5.20;;;9.70;99.90;;;;;;6091374;23;20452;-87
2022/02/15 09:20:36;;;;;;;7.70;4.20;;;9.70;99.90;;;;;;6162344;23;20952;-87
2022/02/15 09:23:45;;;;;;;6.97;6.27;;;9.60;99.90;;;;;;6158646;23;20472;-86
2022/02/15 09:26:12;;;;;;;5.30;4.20;;;9.60;99.90;;;;;;6161926;23;20417;-86
2022/02/15 09:29:45;;;;;;;5.10;4.17;;;9.60;99.90;;;;;;6165038;23;20449;-87
2022/02/15 09:32:31;;;;;;;5.67;4.50;;;9.60;99.90;;;;;;6184735;23;20509;-86
2022/02/15 09:35:27;;;;;;;6.40;4.50;;;9.60;99.90;;;;;;6160686;23;20402;-87
2022/02/15 09:38:30;;;;;;;7.30;4.57;;;9.60;99.90;;;;;;6159884;23;20418;-88
2022/02/15 09:41:23;;;;;;;7.37;4.70;;;9.50;99.90;;;;;;6159356;23;20470;-85
2022/02/15 09:44:11;;;;;;;9.20;5.50;;;9.50;99.90;;;;;;6165240;23;20437;-88
2022/02/15 09:46:46;;;;;;;6.10;5.40;;;9.40;99.90;;;;;;6167380;23;20433;-88
2022/02/15 09:52:14;;;;;;;10.07;4.90;;;9.30;99.90;;;;;;6187212;23;20481;-87
2022/02/15 09:54:42;;;;;;;8.23;5.87;;;9.30;99.90;;;;;;6187478;23;20456;-87
2022/02/15 09:57:24;;;;;;;8.10;4.67;;;9.30;99.90;;;;;;6160991;23;20893;-87
2022/02/15 10:00:13;;;;;;;9.63;5.83;;;9.30;99.90;;;;;;6164245;23;20433;-88
2022/02/15 10:03:08;;;;;;;6.80;5.23;;;9.30;99.90;;;;;;6164471;23;20444;-86
2022/02/15 10:06:10;;;;;;;9.97;7.00;;;9.30;99.90;;;;;;6181595;23;20418;-85
2022/02/15 10:08:57;;;;;;;9.27;5.73;;;9.30;99.90;;;;;;6158841;23;20474;-86
2022/02/15 10:11:53;;;;;;;;;;;;;;;;;;;;;
2022/02/15 10:14:40;;;;;;;10.17;6.70;;;9.50;99.90;;;;;;6184612;23;20406;-88
2022/02/15 10:17:27;;;;;;;7.67;6.10;;;9.60;99.90;;;;;;6161861;23;20824;-87
2022/02/15 10:20:36;;;;;;;6.83;5.60;;;9.90;99.90;;;;;;6189160;23;20393;-92
2022/02/15 10:23:24;;;;;;;6.77;5.23;;;10.00;99.80;;;;;;6180645;23;20418;-90
2022/02/15 10:25:56;;;;;;;5.27;4.77;;;10.10;99.10;;;;;;6207713;23;20412;-92
2022/02/15 10:28:38;;;;;;;5.83;4.90;;;10.10;99.00;;;;;;6171004;23;20413;-87
2022/02/15 10:31:09;;;;;;;8.33;4.90;;;10.10;99.30;;;;;;6186596;23;20972;-88
2022/02/15 10:33:45;;;;;;;5.50;4.67;;;10.30;99.30;;;;;;6160915;23;20418;-85
2022/02/15 10:36:15;;;;;;;7.40;4.13;;;10.40;98.60;;;;;;6162904;23;20809;-87
2022/02/15 10:42:18;;;;;;;9.33;3.73;;;10.20;97.90;;;;;;6191101;23;20468;-87
2022/02/15 10:48:14;;;;;;;8.83;4.47;;;10.30;97.40;;;;;;6201547;23;20473;-89
2022/02/15 10:50:48;;;;;;;4.77;3.37;;;10.20;96.70;;;;;;6191367;23;20417;-88
2022/02/15 10:54:10;;;;;;;4.37;2.90;;;10.10;96.30;;;;;;6188694;23;20390;-88
2022/02/15 10:57:34;;;;;;;4.20;3.27;;;9.90;96.40;;;;;;6153784;23;20465;-87
2022/02/15 11:00:45;;;;;;;3.87;2.70;;;9.90;96.20;;;;;;6167489;23;20425;-88
2022/02/15 11:03:23;;;;;;;5.30;2.53;;;10.10;95.50;;;;;;6188864;23;20433;-87
2022/02/15 11:05:51;;;;;;;5.07;3.03;;;10.20;95.30;;;;;;6172048;23;20405;-87
2022/02/15 11:08:22;;;;;;;3.00;2.60;;;10.10;94.50;;;;;;6162929;23;20496;-88
2022/02/15 11:11:08;;;;;;;7.00;2.90;;;10.30;94.50;;;;;;6163576;23;20391;-87
2022/02/15 11:13:38;;;;;;;3.80;2.77;;;10.20;94.10;;;;;;6163271;23;20406;-88
2022/02/15 11:16:16;;;;;;;4.40;2.90;;;10.20;94.30;;;;;;6164901;23;20385;-88
2022/02/15 11:19:13;;;;;;;11.10;5.87;;;10.20;94.30;;;;;;6163926;23;20406;-87
2022/02/15 11:22:19;;;;;;;6.93;3.70;;;10.40;94.20;;;;;;6175396;23;20430;-91
2022/02/15 11:24:57;;;;;;;3.00;2.80;;;10.40;93.80;;;;;;6179686;23;20418;-87
2022/02/15 11:27:36;;;;;;;5.43;3.57;;;10.30;93.80;;;;;;6166661;23;20417;-88
2022/02/15 11:30:28;;;;;;;4.50;3.10;;;10.30;93.90;;;;;;6163100;23;20416;-89
2022/02/15 11:33:14;;;;;;;9.67;3.70;;;10.30;94.20;;;;;;6161368;23;20544;-88
2022/02/15 11:39:10;;;;;;;6.07;4.13;;;10.50;93.90;;;;;;6181696;23;21031;-88
2022/02/15 11:41:44;;;;;;;5.87;3.87;;;10.50;93.70;;;;;;6173231;23;20468;-88
2022/02/15 11:44:11;;;;;;;5.83;4.20;;;10.60;93.60;;;;;;6170884;23;20434;-88
2022/02/15 11:46:46;;;;;;;7.77;3.57;;;10.90;93.50;;;;;;6173913;23;20507;-91
2022/02/15 11:49:23;;;;;;;3.67;3.37;;;11.00;93.00;;;;;;6182767;23;20417;-89
2022/02/15 11:52:13;;;;;;;5.73;3.57;;;11.00;92.60;;;;;;6208257;23;20444;-91
2022/02/15 11:54:50;;;;;;;4.50;4.10;;;10.90;91.60;;;;;;6174844;23;20481;-87
2022/02/15 11:57:24;;;;;;;6.30;3.83;;;10.80;91.70;;;;;;6165963;23;20417;-87
2022/02/15 12:00:00;;;;;;;3.77;3.37;;;11.00;91.40;;;;;;6188823;23;20488;-88
2022/02/15 12:02:31;;;;;;;5.33;3.80;;;11.00;91.20;;;;;;6162821;23;20437;-84
2022/02/15 12:05:08;;;;;;;4.87;3.20;;;11.60;90.50;;;;;;6160781;23;20414;-88
2022/02/15 12:07:41;;;;;;;3.13;2.63;;;11.90;88.70;;;;;;6163582;23;20418;-87
2022/02/15 12:10:15;;;;;;;4.00;2.70;;;11.70;87.00;;;;;;6189741;23;20390;-86
2022/02/15 12:12:52;;;;;;;2.80;2.37;;;11.70;87.40;;;;;;6188978;23;20449;-87
2022/02/15 12:15:22;;;;;;;3.80;2.60;;;11.50;87.40;;;;;;6163454;23;20967;-87
2022/02/15 12:18:04;;;;;;;4.90;2.70;;;11.20;87.40;;;;;;6165713;23;21041;-86
2022/02/15 12:20:41;;;;;;;2.97;2.40;;;11.10;86.70;;;;;;6165866;23;20410;-87
2022/02/15 12:23:38;;;;;;;5.60;3.03;;;11.10;85.50;;;;;;6166968;23;20430;-87
2022/02/15 12:26:07;;;;;;;3.60;2.23;;;11.30;84.40;;;;;;6165088;23;20433;-86
2022/02/15 12:28:43;;;;;;;4.07;1.70;;;11.20;83.30;;;;;;6165150;23;20876;-88
2022/02/15 12:31:25;;;;;;;6.13;3.27;;;11.30;84.00;;;;;;6190876;23;20418;-88
2022/02/15 12:33:58;;;;;;;2.30;1.70;;;11.60;80.50;;;;;;6190185;23;20469;-84
2022/02/15 12:40:22;;;;;;;3.40;1.60;;;11.70;77.90;;;;;;6182922;23;20398;-86
2022/02/15 12:43:16;;;;;;;3.70;1.80;;;11.70;78.30;;;;;;6157052;23;20434;-87
2022/02/15 12:46:04;;;;;;;3.87;2.50;;;11.70;78.20;;;;;;6159172;23;20480;-85
2022/02/15 12:51:51;;;;;;;2.47;1.20;;;12.00;77.30;;;;;;6170565;23;20945;-87
2022/02/15 12:54:39;;;;;;;;;;;;;;;;;;;;;
2022/02/15 12:57:22;;;;;;;3.23;1.70;;;11.70;74.00;;;;;;6182528;23;21131;-88
2022/02/15 12:59:56;;;;;;;1.23;1.13;;;11.60;73.70;;;;;;6154311;23;20800;-88
2022/02/15 13:02:39;;;;;;;6.00;1.30;;;11.30;75.70;;;;;;6180934;23;20493;-87
2022/02/15 13:05:13;;;;;;;1.90;1.23;;;11.50;76.40;;;;;;6155827;23;20440;-87
2022/02/15 13:07:47;;;;;;;2.40;1.53;;;11.60;76.50;;;;;;6152242;23;20417;-88
2022/02/15 13:10:22;;;;;;;3.30;1.20;;;11.60;76.70;;;;;;6155322;23;20502;-87
2022/02/15 13:13:26;;;;;;;3.03;2.07;;;11.50;77.10;;;;;;6152009;23;20449;-87
2022/02/15 13:16:09;;;;;;;1.20;1.10;;;11.40;77.80;;;;;;6177353;23;20481;-86
2022/02/15 13:18:53;;;;;;;3.03;1.20;;;11.50;77.60;;;;;;6176938;23;20429;-86
2022/02/15 13:21:25;;;;;;;8.07;1.50;;;11.90;75.80;;;;;;6150656;23;20390;-86
2022/02/15 13:23:58;;;;;;;4.10;1.40;;;11.70;74.90;;;;;;6154064;23;20443;-85
2022/02/15 13:26:50;;;;;;;2.10;1.60;;;11.50;76.10;;;;;;6152035;23;20406;-89
2022/02/15 13:29:37;;;;;;;3.50;1.53;;;11.40;76.50;;;;;;6144440;23;21119;-86
2022/02/15 13:32:10;;;;;;;1.33;1.23;;;11.50;76.40;;;;;;6155062;23;20483;-86
2022/02/15 13:34:38;;;;;;;2.90;1.17;;;11.80;74.90;;;;;;6154814;23;20461;-90
2022/02/15 13:37:39;;;;;;;1.03;0.73;;;11.90;73.00;;;;;;6177312;23;20457;-86
2022/02/15 13:40:18;;;;;;;1.57;0.90;;;12.10;70.10;;;;;;6152452;23;20409;-87
2022/02/15 13:43:39;;;;;;;3.20;1.30;;;12.20;69.50;;;;;;6155458;23;20461;-87
2022/02/15 13:46:21;;;;;;;1.13;0.93;;;11.90;70.70;;;;;;6164257;23;20409;-89
2022/02/15 13:48:52;;;;;;;0.93;0.83;;;11.70;71.20;;;;;;6155058;23;20449;-86
2022/02/15 13:51:35;;;;;;;1.10;1.00;;;11.70;69.90;;;;;;6181389;23;20433;-86
2022/02/15 13:54:15;;;;;;;1.57;0.80;;;11.60;69.20;;;;;;6156625;23;20465;-85
2022/02/15 13:56:46;;;;;;;3.17;1.20;;;11.80;70.00;;;;;;6154639;23;20418;-86
2022/02/15 13:59:23;;;;;;;3.40;1.07;;;12.00;69.80;;;;;;6157022;23;20406;-85
2022/02/15 14:02:00;;;;;;;2.50;0.87;;;12.00;69.10;;;;;;6184549;23;20500;-87
2022/02/15 14:04:35;;;;;;;0.87;0.87;;;12.00;67.80;;;;;;6159665;23;20409;-87
2022/02/15 14:07:11;;;;;;;1.90;0.93;;;12.00;67.80;;;;;;6161566;23;20801;-87
2022/02/15 14:09:39;;;;;;;6.57;1.20;;;11.90;68.10;;;;;;6155892;23;20681;-91
2022/02/15 14:12:50;;;;;;;4.77;1.00;;;11.60;68.70;;;;;;6159925;23;20457;-87
2022/02/15 14:15:42;;;;;;;2.70;1.03;;;11.80;68.20;;;;;;6105814;23;20409;-87
2022/02/15 14:18:19;;;;;;;1.77;0.90;;;11.70;68.70;;;;;;6165606;23;20405;-88
2022/02/15 14:20:48;;;;;;;1.30;0.77;;;11.50;69.40;;;;;;6187864;23;20418;-87
2022/02/15 14:23:19;;;;;;;2.60;0.90;;;11.40;69.90;;;;;;6157517;23;20441;-86
2022/02/15 14:25:48;;;;;;;5.80;1.17;;;11.50;70.20;;;;;;6182786;23;20472;-88
2022/02/15 14:28:19;;;;;;;1.27;0.70;;;11.40;70.40;;;;;;6157548;23;20612;-89
2022/02/15 14:30:52;;;;;;;1.53;0.77;;;11.30;70.40;;;;;;6182204;23;20512;-90
2022/02/15 14:33:41;;;;;;;1.90;1.00;;;11.50;70.00;;;;;;6183998;23;20776;-86
2022/02/15 14:36:32;;;;;;;1.37;1.10;;;11.50;70.50;;;;;;6162151;23;20400;-85
2022/02/15 14:39:00;;;;;;;2.10;0.73;;;11.60;68.20;;;;;;6155465;23;20440;-87
2022/02/15 14:41:27;;;;;;;1.10;0.80;;;11.50;68.00;;;;;;6185611;23;20493;-86
2022/02/15 14:44:20;;;;;;;1.23;0.60;;;11.50;68.90;;;;;;6162658;23;20417;-87
2022/02/15 14:47:09;;;;;;;3.27;0.93;;;11.50;68.80;;;;;;6145045;23;20417;-87
2022/02/15 14:50:14;;;;;;;0.67;0.60;;;11.60;68.10;;;;;;6153092;23;20406;-87
2022/02/15 14:52:47;;;;;;;0.83;0.53;;;11.40;69.40;;;;;;6161614;23;20446;-86
2022/02/15 14:55:27;;;;;;;1.10;0.60;;;11.30;69.90;;;;;;6190172;23;20398;-86
2022/02/15 14:58:01;;;;;;;2.50;1.13;;;11.50;69.90;;;;;;6190616;23;20437;-86
2022/02/15 15:00:33;;;;;;;3.70;0.70;;;11.80;68.60;;;;;;6186922;23;20500;-89
2022/02/15 15:03:05;;;;;;;1.93;0.60;;;11.90;67.90;;;;;;6156354;23;20434;-86
2022/02/15 15:05:44;;;;;;;2.77;1.30;;;11.70;67.70;;;;;;6156897;23;20406;-86
2022/02/15 15:08:23;;;;;;;1.10;0.90;;;11.70;67.90;;;;;;6157425;23;20405;-91
2022/02/15 15:10:53;;;;;;;5.17;1.10;;;11.80;68.20;;;;;;6152875;23;20455;-86
2022/02/15 15:13:25;;;;;;;1.17;1.07;;;11.60;68.70;;;;;;6154472;23;20449;-87
2022/02/15 15:19:08;;;;;;;1.33;0.93;;;11.70;69.40;;;;;;6189487;23;20394;-89
2022/02/15 15:21:42;;;;;;;1.30;0.87;;;11.70;69.20;;;;;;6154971;23;20433;-86
2022/02/15 15:24:16;;;;;;;2.50;0.90;;;11.80;68.20;;;;;;6155741;23;20464;-86
2022/02/15 15:27:15;;;;;;;4.73;0.90;;;11.80;67.90;;;;;;6135161;23;20398;-86
2022/02/15 15:29:59;;;;;;;1.07;0.67;;;11.70;68.60;;;;;;6144081;23;20394;-86
2022/02/15 15:32:46;;;;;;;1.60;1.37;;;11.60;68.50;;;;;;6160020;23;20453;-88
2022/02/15 15:35:17;;;;;;;1.63;0.70;;;11.50;68.60;;;;;;6181260;23;20418;-89
2022/02/15 15:37:48;;;;;;;2.20;0.80;;;11.20;69.70;;;;;;6182115;23;20542;-86
2022/02/15 15:40:49;;;;;;;2.20;1.20;;;11.40;70.00;;;;;;6154285;23;20402;-84
2022/02/15 15:43:20;;;;;;;2.10;0.80;;;11.50;69.50;;;;;;6160099;23;20553;-86
2022/02/15 15:45:53;;;;;;;3.90;0.80;;;11.30;69.70;;;;;;6180077;23;20472;-86
2022/02/15 15:48:43;;;;;;;3.30;0.90;;;11.00;71.20;;;;;;6155715;23;20421;-88
2022/02/15 15:51:16;;;;;;;2.13;0.80;;;11.20;71.30;;;;;;6179858;23;20884;-87
2022/02/15 15:53:51;;;;;;;2.10;0.90;;;11.40;70.60;;;;;;6187644;23;20471;-87
2022/02/15 15:56:34;;;;;;;0.60;0.60;;;11.40;70.10;;;;;;6155300;23;20701;-87
2022/02/15 15:59:15;;;;;;;1.77;0.70;;;11.40;70.50;;;;;;6180564;23;20882;-89
2022/02/15 16:01:50;;;;;;;2.03;0.80;;;11.30;70.40;;;;;;6155933;23;20488;-86
2022/02/15 16:04:35;;;;;;;1.20;0.73;;;11.30;70.80;;;;;;6155882;23;20409;-90
2022/02/15 16:07:15;;;;;;;1.70;0.80;;;11.30;71.40;;;;;;6160461;23;20406;-88
2022/02/15 16:09:53;;;;;;;5.87;0.97;;;11.10;72.00;;;;;;6163201;23;20410;-87
2022/02/15 16:12:23;;;;;;;2.93;1.33;;;11.20;72.00;;;;;;6191322;23;20422;-88
2022/02/15 16:15:04;;;;;;;2.53;0.90;;;11.20;72.10;;;;;;6174515;23;20398;-89
2022/02/15 16:20:53;;;;;;;4.77;1.30;;;11.10;72.60;;;;;;6203778;23;20412;-92
2022/02/15 16:23:26;;;;;;;3.63;0.80;;;11.30;72.60;;;;;;6197698;23;20441;-87
2022/02/15 16:25:56;;;;;;;0.87;0.83;;;11.30;72.70;;;;;;6161704;23;20421;-86
2022/02/15 16:28:29;;;;;;;1.27;1.00;;;11.20;73.20;;;;;;6164744;23;21162;-86
2022/02/15 16:32:02;;;;;;;2.67;1.47;;;11.10;73.50;;;;;;6185230;23;20416;-86
2022/02/15 16:34:30;;;;;;;3.10;1.40;;;11.10;74.10;;;;;;6163455;23;20466;-87
2022/02/15 16:37:18;;;;;;;2.83;1.10;;;11.00;74.60;;;;;;6167866;23;20418;-86
2022/02/15 16:39:57;;;;;;;6.37;1.23;;;11.00;75.00;;;;;;6163572;23;20422;-87
2022/02/15 16:42:40;;;;;;;1.70;1.37;;;11.00;75.40;;;;;;6163203;23;20509;-85
2022/02/15 16:45:18;;;;;;;1.30;1.00;;;10.90;75.80;;;;;;6194901;23;20508;-87
2022/02/15 16:48:13;;;;;;;2.40;1.00;;;10.90;76.10;;;;;;6162633;23;20405;-88
2022/02/15 16:51:43;;;;;;;;;;;;;;;;;;;;;
2022/02/15 16:55:09;;;;;;;;;;;;;;;;;;;;;
2022/02/15 16:58:33;;;;;;;1.47;1.20;;;10.90;76.90;;;;;;6198183;23;20393;-83
2022/02/15 17:01:39;;;;;;;1.10;0.87;;;10.80;77.30;;;;;;6173807;23;20441;-84
2022/02/15 17:05:06;;;;;;;2.43;1.30;;;10.80;78.00;;;;;;6171056;23;20398;-86
2022/02/15 17:12:21;;;;;;;;;;;;;;;;;;;;;
2022/02/15 17:15:35;;;;;;;1.63;1.33;;;10.70;78.50;;;;;;5976355;24;20423;-83
2022/02/15 17:22:52;;;;;;;2.17;1.10;;;10.70;79.20;;;;;;5982935;24;20475;-85
2022/02/15 17:26:35;;;;;;;;;;;;;;;;;;;;;
2022/02/15 17:30:06;;;;;;;2.77;1.67;;;10.70;79.80;;;;;;5853111;24;20408;-83
2022/02/15 17:33:04;;;;;;;2.67;1.40;;;10.70;80.00;;;;;;5905833;24;20452;-85
2022/02/15 17:39:19;;;;;;;1.33;0.80;;;10.60;80.50;;;;;;5967457;24;20409;-83
2022/02/15 17:42:18;;;;;;;2.87;1.20;;;10.50;81.00;;;;;;5922162;24;20429;-84
2022/02/15 17:57:54;;;;;;;;;;;;;;;;;;;;;
2022/02/15 18:03:26;;;;;;;1.73;1.13;;;10.70;83.40;;;;;;6185222;23;20449;-86
2022/02/15 18:15:05;;;;;;;1.40;1.30;;;10.50;85.20;;;;;;6105005;23;20440;-85
2022/02/15 18:53:16;;;;;;;1.33;0.93;;;10.70;90.20;;;;;;6020125;23;20400;-86
2022/02/15 19:00:19;;;;;;;3.03;1.57;;;10.70;90.80;;;;;;6020797;23;20419;-87
2022/02/15 19:47:10;;;;;;;6.00;2.23;;;10.80;94.90;;;;;;6193783;23;20496;-88
2022/02/15 19:57:49;;;;;;;6.70;1.60;;;10.80;95.10;;;;;;6084041;23;20385;-87
2022/02/15 20:04:53;;;;;;;2.90;1.40;;;10.70;95.90;;;;;;6029811;23;20515;-88
2022/02/15 20:25:10;;;;;;;4.30;1.43;;;10.60;98.60;;;;;;6178404;23;20445;-86
2022/02/15 20:28:50;;;;;;;;;;;;;;;;;;;;;
2022/02/15 20:32:09;;;;;;;2.43;1.03;;;10.50;99.40;;;;;;6134584;23;20491;-86
2022/02/15 20:50:56;;;;;;;2.67;1.00;;;10.40;99.90;;;;;;5893078;24;20423;-86
2022/02/15 20:54:35;;;;;;;5.53;2.00;;;10.20;99.90;;;;;;5892232;24;20569;-88
2022/02/15 20:58:39;;;;;;;;;;;;;;;;;;;;;
2022/02/15 21:02:09;;;;;;;0.97;0.97;;;10.20;99.90;;;;;;5809926;24;20429;-87
2022/02/15 21:05:55;;;;;;;;;;;;;;;;;;;;;
2022/02/15 21:09:27;;;;;;;0.93;0.90;;;10.20;99.90;;;;;;5807411;24;20407;-84
2022/02/15 21:16:35;;;;;;;;;;;;;;;;;;;;;
2022/02/15 21:19:20;;;;;;;1.13;0.80;;;10.00;99.90;;;;;;5925578;24;20544;-84
2022/02/15 21:22:39;;;;;;;;;;;;;;;;;;;;;
2022/02/15 21:25:47;;;;;;;1.03;0.90;;;10.30;99.90;;;;;;5964220;24;20429;-85
2022/02/15 21:28:52;;;;;;;1.67;1.10;;;10.40;99.90;;;;;;6049664;23;20425;-84
2022/02/15 21:32:23;;;;;;;1.57;0.70;;;10.40;99.90;;;;;;6026154;23;20438;-86
2022/02/15 21:38:47;;;;;;;1.40;1.00;;;10.30;99.90;;;;;;6026065;23;20412;-85
2022/02/15 21:42:13;;;;;;;1.53;0.70;;;10.20;99.90;;;;;;6077371;23;20430;-84
2022/02/15 21:45:44;;;;;;;;;;;;;;;;;;;;;
2022/02/15 21:49:27;;;;;;;0.90;0.77;;;10.30;99.90;;;;;;5923554;24;20426;-83
2022/02/15 21:53:04;;;;;;;0.80;0.80;;;10.30;99.90;;;;;;5855412;24;20459;-82
2022/02/15 21:55:54;;;;;;;0.70;0.70;;;10.20;99.90;;;;;;5833538;24;20413;-86
2022/02/15 22:02:01;;;;;;;1.20;0.83;;;10.20;99.90;;;;;;5857528;24;20460;-83
2022/02/15 22:04:58;;;;;;;2.10;1.07;;;10.20;99.90;;;;;;5854087;24;20408;-86